createdAt,value
2017-01-30T00:00:02.719Z,-3.4
2017-01-30T00:01:03.095Z,-3.49
2017-01-30T00:02:03.063Z,-3.61
2017-01-30T00:03:03.048Z,-3.68
2017-01-30T00:04:03.030Z,-3.65
2017-01-30T00:05:02.998Z,-3.64
2017-01-30T00:06:02.604Z,-3.61
2017-01-30T00:07:02.972Z,-3.55
2017-01-30T00:08:02.951Z,-3.39
2017-01-30T00:09:02.921Z,-3.51
2017-01-30T00:10:02.908Z,-3.43
2017-01-30T00:11:02.904Z,-3.44
2017-01-30T00:12:02.869Z,-3.58
2017-01-30T00:13:02.857Z,-3.49
2017-01-30T00:14:02.841Z,-3.43
2017-01-30T00:15:02.823Z,-3.44
2017-01-30T00:16:02.791Z,-3.58
2017-01-30T00:17:02.779Z,-3.65
2017-01-30T00:18:02.782Z,-3.58
2017-01-30T00:19:02.750Z,-3.58
2017-01-30T00:20:02.733Z,-3.55
2017-01-30T00:21:02.690Z,-3.54
2017-01-30T00:22:02.688Z,-3.61
2017-01-30T00:23:02.672Z,-3.61
2017-01-30T00:24:02.672Z,-3.72
2017-01-30T00:25:02.634Z,-3.64
2017-01-30T00:26:02.607Z,-3.51
2017-01-30T00:27:02.581Z,-3.58
2017-01-30T00:28:02.565Z,-3.58
2017-01-30T00:29:02.533Z,-3.64
2017-01-30T00:30:02.509Z,-3.68
2017-01-30T00:31:02.506Z,-3.74
2017-01-30T00:32:02.475Z,-3.81
2017-01-30T00:33:02.477Z,-3.74
2017-01-30T00:34:02.441Z,-3.76
2017-01-30T00:35:02.436Z,-3.65
2017-01-30T00:36:02.403Z,-3.7
2017-01-30T00:37:02.388Z,-3.7
2017-01-30T00:38:02.364Z,-3.74
2017-01-30T00:39:02.356Z,-3.69
2017-01-30T00:40:02.323Z,-3.77
2017-01-30T00:41:02.301Z,-3.68
2017-01-30T00:42:02.281Z,-3.79
2017-01-30T00:43:02.270Z,-3.74
2017-01-30T00:44:02.253Z,-3.76
2017-01-30T00:45:02.223Z,-3.69
2017-01-30T00:46:02.205Z,-3.69
2017-01-30T00:47:02.189Z,-3.86
2017-01-30T00:48:02.168Z,-3.8
2017-01-30T00:49:02.141Z,-3.84
2017-01-30T00:50:02.133Z,-3.92
2017-01-30T00:51:02.098Z,-3.97
2017-01-30T00:52:02.090Z,-3.95
2017-01-30T00:53:02.062Z,-3.95
2017-01-30T00:54:02.030Z,-4.02
2017-01-30T00:55:02.033Z,-4.01
2017-01-30T00:56:02.001Z,-3.98
2017-01-30T00:57:01.973Z,-4.02
2017-01-30T00:58:01.957Z,-3.95
2017-01-30T00:59:01.940Z,-3.97
2017-01-30T01:00:01.919Z,-3.89
2017-01-30T01:01:01.908Z,-3.92
2017-01-30T01:02:01.875Z,-3.99
2017-01-30T01:03:01.855Z,-3.95
2017-01-30T01:04:01.845Z,-3.88
2017-01-30T01:05:01.816Z,-3.98
2017-01-30T01:06:01.792Z,-3.92
2017-01-30T01:07:01.761Z,-3.99
2017-01-30T01:08:01.765Z,-4.12
2017-01-30T01:09:01.719Z,-3.98
2017-01-30T01:10:01.711Z,-3.92
2017-01-30T01:11:01.695Z,-3.89
2017-01-30T01:12:01.667Z,-3.97
2017-01-30T01:13:01.651Z,-3.98
2017-01-30T01:14:01.635Z,-3.89
2017-01-30T01:15:01.600Z,-3.92
2017-01-30T01:16:01.586Z,-3.89
2017-01-30T01:17:01.555Z,-3.83
2017-01-30T01:18:01.535Z,-3.84
2017-01-30T01:19:01.529Z,-3.92
2017-01-30T01:20:01.496Z,-3.91
2017-01-30T01:21:01.472Z,-3.94
2017-01-30T01:22:01.464Z,-3.95
2017-01-30T01:23:01.446Z,-3.99
2017-01-30T01:24:01.423Z,-3.99
2017-01-30T01:25:01.405Z,-4.01
2017-01-30T01:26:01.382Z,-4.02
2017-01-30T01:27:01.347Z,-3.95
2017-01-30T01:28:01.324Z,-3.95
2017-01-30T01:29:01.329Z,-3.89
2017-01-30T01:30:01.306Z,-3.89
2017-01-30T01:31:01.282Z,-4.02
2017-01-30T01:32:01.262Z,-3.98
2017-01-30T01:33:01.251Z,-4.02
2017-01-30T01:34:01.217Z,-3.98
2017-01-30T01:35:01.204Z,-4.01
2017-01-30T01:36:01.187Z,-4.01
2017-01-30T01:37:01.153Z,-3.95
2017-01-30T01:38:01.129Z,-3.98
2017-01-30T01:39:01.112Z,-3.97
2017-01-30T01:40:01.087Z,-3.98
2017-01-30T01:41:01.079Z,-4.15
2017-01-30T01:42:01.056Z,-4.1
2017-01-30T01:43:01.026Z,-4.09
2017-01-30T01:44:01.009Z,-4.01
2017-01-30T01:45:00.992Z,-3.97
2017-01-30T01:46:00.960Z,-4.01
2017-01-30T01:47:00.944Z,-3.97
2017-01-30T01:48:00.919Z,-3.98
2017-01-30T01:49:00.932Z,-4.06
2017-01-30T01:50:00.869Z,-3.97
2017-01-30T01:51:00.855Z,-4.07
2017-01-30T01:52:00.839Z,-4.16
2017-01-30T01:53:00.823Z,-4.13
2017-01-30T01:54:00.796Z,-4.1
2017-01-30T01:55:00.789Z,-4.16
2017-01-30T01:56:00.757Z,-4.27
2017-01-30T01:57:00.731Z,-4.16
2017-01-30T01:58:00.729Z,-4.1
2017-01-30T01:59:00.716Z,-4.13
2017-01-30T02:00:00.679Z,-4.01
2017-01-30T02:01:00.674Z,-4.1
2017-01-30T02:02:00.629Z,-4.12
2017-01-30T02:03:00.619Z,-4.12
2017-01-30T02:04:00.589Z,-4.01
2017-01-30T02:05:00.582Z,-4.13
2017-01-30T02:06:00.562Z,-4.1
2017-01-30T02:07:00.545Z,-4.13
2017-01-30T02:08:00.524Z,-4.1
2017-01-30T02:09:00.493Z,-4.1
2017-01-30T02:10:00.461Z,-4.12
2017-01-30T02:11:00.456Z,-4.16
2017-01-30T02:12:00.434Z,-4.17
2017-01-30T02:13:00.425Z,-4.2
2017-01-30T02:14:00.419Z,-4.19
2017-01-30T02:15:00.367Z,-4.15
2017-01-30T02:16:00.363Z,-4.12
2017-01-30T02:17:00.343Z,-4.22
2017-01-30T02:18:00.323Z,-4.19
2017-01-30T02:19:00.288Z,-4.3
2017-01-30T02:20:00.270Z,-4.16
2017-01-30T02:21:00.253Z,-4.26
2017-01-30T02:22:00.232Z,-4.16
2017-01-30T02:23:00.209Z,-4.23
2017-01-30T02:24:00.183Z,-4.27
2017-01-30T02:25:00.178Z,-4.31
2017-01-30T02:26:00.142Z,-4.37
2017-01-30T02:27:00.142Z,-4.41
2017-01-30T02:28:00.110Z,-4.56
2017-01-30T02:29:00.097Z,-4.45
2017-01-30T02:30:00.077Z,-4.4
2017-01-30T02:31:00.050Z,-4.46
2017-01-30T02:32:00.032Z,-4.38
2017-01-30T02:33:00.029Z,-4.46
2017-01-30T02:34:00.001Z,-4.38
2017-01-30T02:34:59.961Z,-4.4
2017-01-30T02:35:59.960Z,-4.4
2017-01-30T02:36:59.933Z,-4.4
2017-01-30T02:37:59.916Z,-4.38
2017-01-30T02:38:59.891Z,-4.3
2017-01-30T02:39:59.878Z,-4.31
2017-01-30T02:40:59.851Z,-4.22
2017-01-30T02:41:59.826Z,-4.3
2017-01-30T02:42:59.820Z,-4.4
2017-01-30T02:43:59.830Z,-4.4
2017-01-30T02:44:59.781Z,-4.45
2017-01-30T02:45:59.756Z,-4.46
2017-01-30T02:46:59.718Z,-4.46
2017-01-30T02:47:59.713Z,-4.4
2017-01-30T02:48:59.691Z,-4.36
2017-01-30T02:49:59.685Z,-4.41
2017-01-30T02:50:59.661Z,-4.33
2017-01-30T02:51:59.621Z,-4.44
2017-01-30T02:52:59.612Z,-4.37
2017-01-30T02:53:59.596Z,-4.45
2017-01-30T02:54:59.565Z,-4.36
2017-01-30T02:55:59.542Z,-4.36
2017-01-30T02:56:59.545Z,-4.36
2017-01-30T02:57:59.516Z,-4.34
2017-01-30T02:58:59.493Z,-4.38
2017-01-30T02:59:59.473Z,-4.38
2017-01-30T03:00:59.456Z,-4.33
2017-01-30T03:01:59.425Z,-4.41
2017-01-30T03:02:59.410Z,-4.37
2017-01-30T03:03:59.423Z,-4.41
2017-01-30T03:04:59.386Z,-4.36
2017-01-30T03:05:59.345Z,-4.4
2017-01-30T03:06:59.324Z,-4.36
2017-01-30T03:07:59.322Z,-4.33
2017-01-30T03:08:59.291Z,-4.31
2017-01-30T03:09:59.275Z,-4.48
2017-01-30T03:10:59.243Z,-4.51
2017-01-30T03:11:59.220Z,-4.55
2017-01-30T03:12:59.201Z,-4.45
2017-01-30T03:13:59.192Z,-4.51
2017-01-30T03:14:59.178Z,-4.4
2017-01-30T03:15:59.195Z,-4.44
2017-01-30T03:16:59.129Z,-4.49
2017-01-30T03:17:59.111Z,-4.55
2017-01-30T03:18:59.082Z,-4.58
2017-01-30T03:19:59.063Z,-4.58
2017-01-30T03:20:59.043Z,-4.62
2017-01-30T03:21:59.030Z,-4.54
2017-01-30T03:22:59.007Z,-4.46
2017-01-30T03:23:58.984Z,-4.41
2017-01-30T03:24:58.979Z,-4.52
2017-01-30T03:25:58.942Z,-4.41
2017-01-30T03:26:58.939Z,-4.44
2017-01-30T03:27:58.914Z,-4.45
2017-01-30T03:28:58.892Z,-4.46
2017-01-30T03:29:58.870Z,-4.4
2017-01-30T03:30:58.843Z,-4.48
2017-01-30T03:31:58.828Z,-4.55
2017-01-30T03:32:58.808Z,-4.62
2017-01-30T03:33:58.778Z,-4.58
2017-01-30T03:34:58.768Z,-4.51
2017-01-30T03:35:58.740Z,-4.38
2017-01-30T03:36:58.721Z,-4.45
2017-01-30T03:37:58.698Z,-4.4
2017-01-30T03:38:58.683Z,-4.54
2017-01-30T03:39:58.673Z,-4.58
2017-01-30T03:40:58.650Z,-4.55
2017-01-30T03:41:58.622Z,-4.58
2017-01-30T03:42:58.609Z,-4.51
2017-01-30T03:43:58.598Z,-4.56
2017-01-30T03:44:58.570Z,-4.62
2017-01-30T03:45:58.552Z,-4.67
2017-01-30T03:46:58.532Z,-4.55
2017-01-30T03:47:58.498Z,-4.62
2017-01-30T03:48:58.498Z,-4.69
2017-01-30T03:49:58.479Z,-4.65
2017-01-30T03:50:58.448Z,-4.65
2017-01-30T03:51:58.428Z,-4.56
2017-01-30T03:52:58.411Z,-4.45
2017-01-30T03:53:58.385Z,-4.41
2017-01-30T03:54:58.398Z,-4.41
2017-01-30T03:55:58.348Z,-4.44
2017-01-30T03:56:58.325Z,-4.54
2017-01-30T03:57:58.319Z,-4.59
2017-01-30T03:58:58.280Z,-4.55
2017-01-30T03:59:58.257Z,-4.49
2017-01-30T04:00:58.249Z,-4.49
2017-01-30T04:01:58.227Z,-4.54
2017-01-30T04:02:58.206Z,-4.45
2017-01-30T04:03:58.191Z,-4.38
2017-01-30T04:04:58.172Z,-4.45
2017-01-30T04:05:58.184Z,-4.54
2017-01-30T04:06:58.128Z,-4.51
2017-01-30T04:07:57.727Z,-4.63
2017-01-30T04:08:57.701Z,-4.73
2017-01-30T04:09:58.084Z,-4.72
2017-01-30T04:10:58.052Z,-4.72
2017-01-30T04:11:57.638Z,-4.87
2017-01-30T04:12:58.009Z,-4.83
2017-01-30T04:13:57.983Z,-4.63
2017-01-30T04:14:57.971Z,-4.55
2017-01-30T04:15:57.961Z,-4.51
2017-01-30T04:16:57.943Z,-4.54
2017-01-30T04:17:57.914Z,-4.56
2017-01-30T04:18:57.889Z,-4.52
2017-01-30T04:19:57.869Z,-4.62
2017-01-30T04:20:57.843Z,-4.56
2017-01-30T04:21:57.839Z,-4.52
2017-01-30T04:22:57.797Z,-4.48
2017-01-30T04:23:57.805Z,-4.54
2017-01-30T04:24:57.769Z,-4.56
2017-01-30T04:25:57.750Z,-4.63
2017-01-30T04:26:57.731Z,-4.72
2017-01-30T04:27:57.707Z,-4.73
2017-01-30T04:28:57.690Z,-4.77
2017-01-30T04:29:57.679Z,-4.76
2017-01-30T04:30:57.640Z,-4.67
2017-01-30T04:31:57.635Z,-4.77
2017-01-30T04:32:57.596Z,-4.81
2017-01-30T04:33:57.590Z,-4.77
2017-01-30T04:34:57.577Z,-4.77
2017-01-30T04:35:57.544Z,-4.7
2017-01-30T04:36:57.517Z,-4.83
2017-01-30T04:37:57.512Z,-4.84
2017-01-30T04:38:57.085Z,-4.74
2017-01-30T04:39:57.453Z,-4.74
2017-01-30T04:40:57.450Z,-4.76
2017-01-30T04:41:57.434Z,-4.76
2017-01-30T04:42:57.410Z,-4.77
2017-01-30T04:43:57.382Z,-4.74
2017-01-30T04:44:57.347Z,-4.73
2017-01-30T04:45:57.325Z,-4.83
2017-01-30T04:46:57.318Z,-4.83
2017-01-30T04:47:56.904Z,-4.73
2017-01-30T04:48:57.278Z,-4.87
2017-01-30T04:49:57.275Z,-4.88
2017-01-30T04:50:57.227Z,-4.93
2017-01-30T04:51:57.217Z,-4.97
2017-01-30T04:52:57.188Z,-4.93
2017-01-30T04:53:57.170Z,-5.02
2017-01-30T04:54:57.139Z,-4.99
2017-01-30T04:55:57.125Z,-5.06
2017-01-30T04:56:57.112Z,-5.06
2017-01-30T04:57:56.695Z,-5.05
2017-01-30T04:58:57.071Z,-5.03
2017-01-30T04:59:57.031Z,-5.11
2017-01-30T05:00:57.014Z,-5.13
2017-01-30T05:01:56.995Z,-5.28
2017-01-30T05:02:56.977Z,-5.23
2017-01-30T05:03:56.956Z,-5.28
2017-01-30T05:04:56.541Z,-5.27
2017-01-30T05:05:56.917Z,-5.24
2017-01-30T05:06:56.893Z,-5.25
2017-01-30T05:07:56.880Z,-5.35
2017-01-30T05:08:56.876Z,-5.35
2017-01-30T05:09:56.828Z,-5.33
2017-01-30T05:10:56.815Z,-5.28
2017-01-30T05:11:56.791Z,-5.31
2017-01-30T05:12:56.771Z,-5.34
2017-01-30T05:13:56.742Z,-5.3
2017-01-30T05:14:56.723Z,-5.38
2017-01-30T05:15:56.700Z,-5.33
2017-01-30T05:16:56.675Z,-5.28
2017-01-30T05:17:56.646Z,-5.31
2017-01-30T05:18:56.643Z,-5.34
2017-01-30T05:19:56.621Z,-5.38
2017-01-30T05:20:56.593Z,-5.38
2017-01-30T05:21:56.568Z,-5.28
2017-01-30T05:22:56.548Z,-5.24
2017-01-30T05:23:56.540Z,-5.17
2017-01-30T05:24:56.498Z,-5.06
2017-01-30T05:25:56.497Z,-5.08
2017-01-30T05:26:56.069Z,-5.16
2017-01-30T05:27:56.430Z,-5.2
2017-01-30T05:28:56.420Z,-5.11
2017-01-30T05:29:56.019Z,-5.38
2017-01-30T05:30:56.380Z,-5.28
2017-01-30T05:31:56.350Z,-5.34
2017-01-30T05:32:55.954Z,-5.31
2017-01-30T05:33:55.929Z,-5.33
2017-01-30T05:34:56.301Z,-5.35
2017-01-30T05:35:56.260Z,-5.38
2017-01-30T05:36:56.250Z,-5.34
2017-01-30T05:37:56.222Z,-5.35
2017-01-30T05:38:55.821Z,-5.38
2017-01-30T05:39:55.789Z,-5.35
2017-01-30T05:40:56.163Z,-5.35
2017-01-30T05:41:56.143Z,-5.51
2017-01-30T05:42:55.733Z,-5.39
2017-01-30T05:43:56.095Z,-5.49
2017-01-30T05:44:56.069Z,-5.41
2017-01-30T05:45:56.065Z,-5.35
2017-01-30T05:46:56.020Z,-5.35
2017-01-30T05:47:56.004Z,-5.34
2017-01-30T05:48:55.973Z,-5.31
2017-01-30T05:49:55.960Z,-5.35
2017-01-30T05:50:55.944Z,-5.33
2017-01-30T05:51:55.925Z,-5.33
2017-01-30T05:52:55.915Z,-5.35
2017-01-30T05:53:55.868Z,-5.27
2017-01-30T05:54:55.868Z,-5.35
2017-01-30T05:55:55.832Z,-5.31
2017-01-30T05:56:55.812Z,-5.38
2017-01-30T05:57:55.792Z,-5.28
2017-01-30T05:58:55.767Z,-5.34
2017-01-30T05:59:55.757Z,-5.31
2017-01-30T06:00:55.721Z,-5.27
2017-01-30T06:01:55.713Z,-5.25
2017-01-30T06:02:55.692Z,-5.25
2017-01-30T06:03:55.648Z,-5.21
2017-01-30T06:04:55.634Z,-5.2
2017-01-30T06:05:55.603Z,-5.09
2017-01-30T06:06:55.603Z,-5.13
2017-01-30T06:07:55.581Z,-5.27
2017-01-30T06:08:55.162Z,-5.2
2017-01-30T06:09:55.530Z,-5.24
2017-01-30T06:10:55.508Z,-5.17
2017-01-30T06:11:55.479Z,-5.21
2017-01-30T06:12:55.450Z,-5.17
2017-01-30T06:13:55.446Z,-5.12
2017-01-30T06:14:55.445Z,-5.09
2017-01-30T06:15:55.409Z,-5.13
2017-01-30T06:16:55.366Z,-5.06
2017-01-30T06:17:55.362Z,-5.12
2017-01-30T06:18:55.339Z,-5.02
2017-01-30T06:19:55.325Z,-5.05
2017-01-30T06:20:55.293Z,-5.03
2017-01-30T06:21:55.289Z,-5.09
2017-01-30T06:22:55.259Z,-4.99
2017-01-30T06:23:55.232Z,-5.05
2017-01-30T06:24:55.219Z,-4.93
2017-01-30T06:25:55.190Z,-4.91
2017-01-30T06:26:55.178Z,-4.97
2017-01-30T06:27:55.139Z,-4.95
2017-01-30T06:28:55.122Z,-4.99
2017-01-30T06:29:55.099Z,-4.95
2017-01-30T06:30:55.097Z,-4.91
2017-01-30T06:31:55.075Z,-4.79
2017-01-30T06:32:55.038Z,-4.73
2017-01-30T06:33:55.019Z,-4.84
2017-01-30T06:34:55.052Z,-4.79
2017-01-30T06:35:54.991Z,-4.77
2017-01-30T06:36:54.968Z,-4.73
2017-01-30T06:37:54.960Z,-4.69
2017-01-30T06:38:54.905Z,-4.74
2017-01-30T06:39:55.112Z,-4.66
2017-01-30T06:40:54.869Z,-4.66
2017-01-30T06:41:54.468Z,-4.62
2017-01-30T06:42:54.824Z,-4.56
2017-01-30T06:43:54.812Z,-4.59
2017-01-30T06:44:54.998Z,-4.62
2017-01-30T06:45:54.984Z,-4.56
2017-01-30T06:46:54.751Z,-4.66
2017-01-30T06:47:54.727Z,-4.44
2017-01-30T06:48:54.721Z,-4.4
2017-01-30T06:49:54.889Z,-4.37
2017-01-30T06:50:54.662Z,-4.34
2017-01-30T06:51:54.636Z,-4.44
2017-01-30T06:52:54.625Z,-4.44
2017-01-30T06:53:54.606Z,-4.55
2017-01-30T06:54:54.591Z,-4.44
2017-01-30T06:55:54.550Z,-4.55
2017-01-30T06:56:54.530Z,-4.46
2017-01-30T06:57:54.530Z,-4.4
2017-01-30T06:58:54.119Z,-4.27
2017-01-30T06:59:54.467Z,-4.01
2017-01-30T07:00:54.470Z,-3.8
2017-01-30T07:01:54.443Z,-3.55
2017-01-30T07:02:54.419Z,-3.37
2017-01-30T07:03:54.394Z,-3.37
2017-01-30T07:04:54.377Z,-3.25
2017-01-30T07:05:54.356Z,-3.13
2017-01-30T07:06:54.333Z,-2.97
2017-01-30T07:07:54.315Z,-3.19
2017-01-30T07:08:54.304Z,-3.15
2017-01-30T07:09:54.280Z,-3.1
2017-01-30T07:10:54.270Z,-3.12
2017-01-30T07:11:54.251Z,-3.41
2017-01-30T07:13:07.857Z,-3.76
2017-01-30T07:13:54.200Z,-3.89
2017-01-30T07:14:54.186Z,-3.95
2017-01-30T07:15:54.172Z,-3.98
2017-01-30T07:16:54.150Z,-4.12
2017-01-30T07:17:54.110Z,-4.19
2017-01-30T07:18:54.306Z,-4.1
2017-01-30T07:19:54.093Z,-4.02
2017-01-30T07:20:54.050Z,-3.74
2017-01-30T07:21:54.041Z,-3.62
2017-01-30T07:22:54.028Z,-3.59
2017-01-30T07:23:54.196Z,-3.49
2017-01-30T07:24:53.980Z,-3.41
2017-01-30T07:25:53.969Z,-3.19
2017-01-30T07:26:53.949Z,-3.21
2017-01-30T07:27:53.931Z,-3.23
2017-01-30T07:28:53.911Z,-3.36
2017-01-30T07:29:53.876Z,-3.12
2017-01-30T07:30:53.871Z,-3.16
2017-01-30T07:31:53.838Z,-3.19
2017-01-30T07:32:53.821Z,-3.1
2017-01-30T07:33:53.793Z,-3.1
2017-01-30T07:34:53.775Z,-3.08
2017-01-30T07:35:53.762Z,-3.4
2017-01-30T07:36:53.742Z,-3.34
2017-01-30T07:37:53.337Z,-3.43
2017-01-30T07:38:53.707Z,-3.31
2017-01-30T07:39:53.677Z,-3.26
2017-01-30T07:40:53.673Z,-3.36
2017-01-30T07:41:53.653Z,-3.37
2017-01-30T07:42:53.250Z,-3.33
2017-01-30T07:43:53.610Z,-3.49
2017-01-30T07:44:53.581Z,-3.41
2017-01-30T07:46:06.819Z,-3.52
2017-01-30T07:46:53.373Z,-3.59
2017-01-30T07:47:53.163Z,-3.74
2017-01-30T07:48:53.504Z,-3.7
2017-01-30T07:50:08.023Z,-3.84
2017-01-30T07:50:53.477Z,-3.8
2017-01-30T07:51:53.272Z,-3.8
2017-01-30T07:52:53.450Z,-3.79
2017-01-30T07:53:53.419Z,-3.76
2017-01-30T07:54:53.403Z,-3.8
2017-01-30T07:55:53.371Z,-3.81
2017-01-30T07:56:53.359Z,-3.81
2017-01-30T07:57:53.338Z,-3.95
2017-01-30T07:58:53.325Z,-3.97
2017-01-30T07:59:53.296Z,-3.97
2017-01-30T08:00:53.275Z,-3.89
2017-01-30T08:01:53.263Z,-3.89
2017-01-30T08:02:53.250Z,-3.98
2017-01-30T08:03:53.224Z,-3.94
2017-01-30T08:04:53.203Z,-3.84
2017-01-30T08:05:53.184Z,-3.94
2017-01-30T08:06:52.393Z,-3.79
2017-01-30T08:07:53.135Z,-3.89
2017-01-30T08:08:53.132Z,-3.97
2017-01-30T08:09:53.099Z,-3.84
2017-01-30T08:10:53.093Z,-3.79
2017-01-30T08:11:53.061Z,-3.72
2017-01-30T08:12:53.033Z,-3.88
2017-01-30T08:13:53.012Z,-3.7
2017-01-30T08:14:53.008Z,-3.8
2017-01-30T08:15:52.977Z,-3.77
2017-01-30T08:16:52.577Z,-3.65
2017-01-30T08:17:52.951Z,-3.62
2017-01-30T08:18:53.129Z,-3.7
2017-01-30T08:19:52.906Z,-3.7
2017-01-30T08:20:52.870Z,-3.62
2017-01-30T08:21:52.858Z,-3.57
2017-01-30T08:22:52.843Z,-3.68
2017-01-30T08:23:52.822Z,-3.62
2017-01-30T08:24:53.010Z,-3.58
2017-01-30T08:25:52.778Z,-3.65
2017-01-30T08:26:52.766Z,-3.65
2017-01-30T08:27:52.737Z,-3.61
2017-01-30T08:28:52.746Z,-3.55
2017-01-30T08:29:52.708Z,-3.49
2017-01-30T08:30:52.675Z,-3.36
2017-01-30T08:31:52.666Z,-3.47
2017-01-30T08:32:52.645Z,-3.51
2017-01-30T08:33:52.614Z,-3.4
2017-01-30T08:34:52.594Z,-3.52
2017-01-30T08:35:52.576Z,-3.57
2017-01-30T08:36:52.563Z,-3.68
2017-01-30T08:37:52.167Z,-3.77
2017-01-30T08:38:52.507Z,-3.77
2017-01-30T08:39:52.496Z,-3.97
2017-01-30T08:40:52.485Z,-3.88
2017-01-30T08:41:52.456Z,-3.8
2017-01-30T08:42:52.419Z,-3.79
2017-01-30T08:43:52.401Z,-3.69
2017-01-30T08:44:52.399Z,-3.69
2017-01-30T08:45:52.373Z,-3.97
2017-01-30T08:46:52.364Z,-3.8
2017-01-30T08:47:52.327Z,-3.97
2017-01-30T08:48:52.325Z,-3.76
2017-01-30T08:49:52.283Z,-3.81
2017-01-30T08:50:52.277Z,-3.98
2017-01-30T08:51:52.472Z,-3.95
2017-01-30T08:52:52.230Z,-3.92
2017-01-30T08:53:52.227Z,-3.8
2017-01-30T08:54:52.183Z,-3.81
2017-01-30T08:55:52.193Z,-3.77
2017-01-30T08:56:52.353Z,-3.86
2017-01-30T08:57:52.133Z,-3.88
2017-01-30T08:58:52.099Z,-3.98
2017-01-30T08:59:52.090Z,-3.94
2017-01-30T09:00:52.070Z,-3.94
2017-01-30T09:01:52.063Z,-3.97
2017-01-30T09:02:52.034Z,-3.84
2017-01-30T09:03:52.007Z,-3.95
2017-01-30T09:04:51.981Z,-4.06
2017-01-30T09:05:51.974Z,-3.97
2017-01-30T09:06:51.933Z,-3.92
2017-01-30T09:07:51.913Z,-4.12
2017-01-30T09:08:51.515Z,-4.13
2017-01-30T09:09:51.881Z,-4.17
2017-01-30T09:10:51.854Z,-4.2
2017-01-30T09:11:51.855Z,-4.15
2017-01-30T09:12:51.818Z,-4.23
2017-01-30T09:13:51.804Z,-4.27
2017-01-30T09:14:51.777Z,-4.19
2017-01-30T09:15:51.750Z,-4.17
2017-01-30T09:16:51.728Z,-4.13
2017-01-30T09:17:51.713Z,-4.01
2017-01-30T09:18:51.700Z,-4.04
2017-01-30T09:19:51.677Z,-4.06
2017-01-30T09:20:51.662Z,-3.92
2017-01-30T09:21:51.623Z,-3.84
2017-01-30T09:22:51.611Z,-3.98
2017-01-30T09:23:51.610Z,-3.97
2017-01-30T09:24:51.577Z,-4.12
2017-01-30T09:25:51.566Z,-4.06
2017-01-30T09:26:51.527Z,-4.13
2017-01-30T09:27:51.544Z,-4.13
2017-01-30T09:28:51.531Z,-4.01
2017-01-30T09:29:51.677Z,-3.99
2017-01-30T09:30:51.443Z,-3.76
2017-01-30T09:31:51.444Z,-3.74
2017-01-30T09:32:51.413Z,-3.65
2017-01-30T09:33:51.429Z,-3.54
2017-01-30T09:34:50.985Z,-3.46
2017-01-30T09:35:51.353Z,-3.34
2017-01-30T09:36:51.331Z,-3.34
2017-01-30T09:37:51.297Z,-3.26
2017-01-30T09:38:51.279Z,-3.34
2017-01-30T09:39:51.274Z,-3.31
2017-01-30T09:40:51.251Z,-3.39
2017-01-30T09:41:51.272Z,-3.72
2017-01-30T09:42:51.217Z,-3.58
2017-01-30T09:43:51.199Z,-3.3
2017-01-30T09:44:51.160Z,-3.37
2017-01-30T09:45:51.153Z,-3.49
2017-01-30T09:46:51.131Z,-3.46
2017-01-30T09:47:51.102Z,-3.4
2017-01-30T09:48:51.105Z,-3.23
2017-01-30T09:49:51.087Z,-3.1
2017-01-30T09:50:51.048Z,-3.28
2017-01-30T09:51:51.035Z,-3.77
2017-01-30T09:52:51.048Z,-3.64
2017-01-30T09:53:50.993Z,-3.4
2017-01-30T09:54:50.976Z,-3.26
2017-01-30T09:55:50.942Z,-3.25
2017-01-30T09:56:50.932Z,-3.64
2017-01-30T09:57:50.924Z,-3.88
2017-01-30T09:58:50.898Z,-3.72
2017-01-30T09:59:50.871Z,-3.69
2017-01-30T10:00:50.856Z,-3.84
2017-01-30T10:01:50.834Z,-3.76
2017-01-30T10:02:50.817Z,-3.88
2017-01-30T10:03:50.781Z,-3.99
2017-01-30T10:04:50.780Z,-4.01
2017-01-30T10:05:50.767Z,-3.76
2017-01-30T10:06:50.743Z,-3.74
2017-01-30T10:07:50.702Z,-3.28
2017-01-30T10:08:50.697Z,-2.98
2017-01-30T10:09:50.676Z,-3.18
2017-01-30T10:10:50.665Z,-2.95
2017-01-30T10:11:50.633Z,-2.72
2017-01-30T10:12:50.618Z,-2.61
2017-01-30T10:13:50.221Z,-2.44
2017-01-30T10:14:50.571Z,-2.35
2017-01-30T10:15:50.558Z,-2.66
2017-01-30T10:16:50.550Z,-2.71
2017-01-30T10:17:50.529Z,-2.65
2017-01-30T10:18:50.500Z,-2.43
2017-01-30T10:19:50.480Z,-2.28
2017-01-30T10:20:50.470Z,-2.16
2017-01-30T10:21:50.439Z,-2.04
2017-01-30T10:22:50.430Z,-2.04
2017-01-30T10:23:50.412Z,-1.95
2017-01-30T10:24:50.394Z,-2.28
2017-01-30T10:25:50.371Z,-2.29
2017-01-30T10:26:50.346Z,-2.37
2017-01-30T10:27:50.320Z,-2.68
2017-01-30T10:28:50.310Z,-2.69
2017-01-30T10:29:50.296Z,-2.33
2017-01-30T10:30:50.274Z,-2.19
2017-01-30T10:31:50.248Z,-2.22
2017-01-30T10:32:50.231Z,-2.24
2017-01-30T10:33:50.207Z,-2.43
2017-01-30T10:34:50.190Z,-2.37
2017-01-30T10:35:50.161Z,-2.47
2017-01-30T10:36:49.388Z,-2.5
2017-01-30T10:37:50.134Z,-2.33
2017-01-30T10:38:50.115Z,-2.19
2017-01-30T10:39:50.095Z,-2.24
2017-01-30T10:40:50.073Z,-2.5
2017-01-30T10:41:50.073Z,-2.74
2017-01-30T10:42:50.045Z,-2.98
2017-01-30T10:43:50.021Z,-2.84
2017-01-30T10:44:50.000Z,-2.61
2017-01-30T10:45:49.988Z,-2.21
2017-01-30T10:46:49.967Z,-2.06
2017-01-30T10:47:49.930Z,-1.92
2017-01-30T10:48:49.915Z,-2.28
2017-01-30T10:49:49.917Z,-2.22
2017-01-30T10:50:49.884Z,-2.35
2017-01-30T10:51:49.867Z,-2.46
2017-01-30T10:52:49.855Z,-2.35
2017-01-30T10:53:49.832Z,-2.37
2017-01-30T10:54:49.811Z,-2.64
2017-01-30T10:55:49.788Z,-2.69
2017-01-30T10:56:49.781Z,-2.72
2017-01-30T10:57:49.747Z,-2.82
2017-01-30T10:58:49.746Z,-2.65
2017-01-30T10:59:49.325Z,-2.65
2017-01-30T11:00:49.313Z,-2.58
2017-01-30T11:01:49.668Z,-3.08
2017-01-30T11:02:49.669Z,-3.33
2017-01-30T11:03:49.264Z,-3.4
2017-01-30T11:04:49.626Z,-3.4
2017-01-30T11:05:49.598Z,-3.33
2017-01-30T11:06:49.575Z,-3.15
2017-01-30T11:07:49.575Z,-3.1
2017-01-30T11:08:49.160Z,-3.15
2017-01-30T11:09:49.514Z,-3.18
2017-01-30T11:10:49.113Z,-3.21
2017-01-30T11:11:49.489Z,-3.19
2017-01-30T11:12:49.078Z,-3.1
2017-01-30T11:13:49.444Z,-3.26
2017-01-30T11:14:49.428Z,-3.26
2017-01-30T11:15:49.399Z,-3.18
2017-01-30T11:16:49.387Z,-3.37
2017-01-30T11:17:49.368Z,-3.36
2017-01-30T11:18:49.343Z,-3.21
2017-01-30T11:19:49.317Z,-3.02
2017-01-30T11:20:49.340Z,-3.15
2017-01-30T11:21:49.278Z,-3.07
2017-01-30T11:22:49.279Z,-3.21
2017-01-30T11:23:49.247Z,-3.22
2017-01-30T11:24:49.238Z,-3.22
2017-01-30T11:25:49.211Z,-2.95
2017-01-30T11:26:49.186Z,-2.82
2017-01-30T11:27:49.165Z,-2.68
2017-01-30T11:28:49.163Z,-2.46
2017-01-30T11:29:49.132Z,-2.33
2017-01-30T11:30:49.096Z,-2.11
2017-01-30T11:31:49.086Z,-2.03
2017-01-30T11:32:49.095Z,-1.83
2017-01-30T11:33:49.041Z,-1.9
2017-01-30T11:34:49.041Z,-2.32
2017-01-30T11:35:49.025Z,-2.29
2017-01-30T11:36:48.983Z,-1.9
2017-01-30T11:37:48.974Z,-1.88
2017-01-30T11:38:48.961Z,-2.14
2017-01-30T11:39:48.972Z,-2.33
2017-01-30T11:40:48.918Z,-2.22
2017-01-30T11:41:48.902Z,-2.28
2017-01-30T11:42:48.879Z,-2.25
2017-01-30T11:43:48.870Z,-2.29
2017-01-30T11:44:48.845Z,-2.68
2017-01-30T11:45:48.820Z,-2.98
2017-01-30T11:46:48.806Z,-2.95
2017-01-30T11:47:48.784Z,-2.97
2017-01-30T11:48:48.756Z,-3.01
2017-01-30T11:49:48.751Z,-2.95
2017-01-30T11:50:48.739Z,-2.93
2017-01-30T11:51:48.705Z,-3.02
2017-01-30T11:52:48.675Z,-3.1
2017-01-30T11:53:48.667Z,-3.15
2017-01-30T11:54:48.640Z,-3.16
2017-01-30T11:55:48.628Z,-3.08
2017-01-30T11:56:48.599Z,-3.07
2017-01-30T11:57:48.576Z,-3.12
2017-01-30T11:58:48.568Z,-3.12
2017-01-30T11:59:48.543Z,-2.8
2017-01-30T12:00:48.526Z,-2.8
2017-01-30T12:01:48.520Z,-2.97
2017-01-30T12:02:48.492Z,-2.93
2017-01-30T12:03:48.478Z,-2.97
2017-01-30T12:04:48.453Z,-3
2017-01-30T12:05:48.429Z,-2.98
2017-01-30T12:06:48.405Z,-2.98
2017-01-30T12:07:48.393Z,-2.86
2017-01-30T12:08:48.389Z,-3.07
2017-01-30T12:09:48.363Z,-3.02
2017-01-30T12:10:48.341Z,-3.04
2017-01-30T12:11:48.327Z,-3.05
2017-01-30T12:12:48.291Z,-2.94
2017-01-30T12:13:48.275Z,-3.02
2017-01-30T12:14:48.243Z,-2.8
2017-01-30T12:15:48.235Z,-2.82
2017-01-30T12:16:48.216Z,-2.95
2017-01-30T12:17:48.197Z,-2.89
2017-01-30T12:18:48.178Z,-2.83
2017-01-30T12:19:48.158Z,-2.93
2017-01-30T12:20:48.191Z,-3.1
2017-01-30T12:21:48.121Z,-3.08
2017-01-30T12:22:48.102Z,-3.05
2017-01-30T12:23:48.069Z,-3.08
2017-01-30T12:24:48.057Z,-2.94
2017-01-30T12:25:48.036Z,-2.72
2017-01-30T12:26:48.023Z,-2.56
2017-01-30T12:27:47.998Z,-2.74
2017-01-30T12:28:47.981Z,-2.65
2017-01-30T12:29:47.949Z,-2.71
2017-01-30T12:30:47.945Z,-2.71
2017-01-30T12:31:47.934Z,-2.9
2017-01-30T12:32:47.902Z,-2.83
2017-01-30T12:33:47.893Z,-2.82
2017-01-30T12:34:47.851Z,-2.79
2017-01-30T12:35:47.842Z,-2.77
2017-01-30T12:36:47.827Z,-2.89
2017-01-30T12:37:47.806Z,-2.82
2017-01-30T12:38:47.801Z,-2.71
2017-01-30T12:39:47.797Z,-2.71
2017-01-30T12:40:47.754Z,-2.64
2017-01-30T12:41:47.741Z,-2.87
2017-01-30T12:42:47.707Z,-2.66
2017-01-30T12:43:47.706Z,-2.66
2017-01-30T12:44:47.690Z,-2.77
2017-01-30T12:45:47.661Z,-2.8
2017-01-30T12:46:47.644Z,-3.1
2017-01-30T12:47:47.619Z,-3.15
2017-01-30T12:48:47.580Z,-2.97
2017-01-30T12:49:47.576Z,-2.98
2017-01-30T12:50:47.542Z,-2.94
2017-01-30T12:51:47.535Z,-2.93
2017-01-30T12:52:47.523Z,-2.93
2017-01-30T12:53:47.481Z,-2.86
2017-01-30T12:54:47.463Z,-2.87